createdAt,value
2019-04-23T00:01:14.819Z,24.80
2019-04-23T00:03:40.419Z,24.79
2019-04-23T00:06:18.977Z,24.78
2019-04-23T00:08:52.195Z,24.77
2019-04-23T00:16:23.990Z,24.76
2019-04-23T00:18:46.389Z,24.75
2019-04-23T00:21:38.522Z,24.75
2019-04-23T00:24:11.751Z,24.74
2019-04-23T00:26:36.741Z,24.73
2019-04-23T00:29:11.737Z,24.72
2019-04-23T00:31:38.845Z,24.72
2019-04-23T00:34:10.572Z,24.71
2019-04-23T00:39:11.752Z,24.70
2019-04-23T00:41:42.521Z,24.68
2019-04-23T00:44:21.262Z,24.68
2019-04-23T00:46:46.583Z,24.67
2019-04-23T00:49:21.294Z,24.66
2019-04-23T00:51:56.976Z,24.66
2019-04-23T00:54:27.397Z,24.66
2019-04-23T00:56:54.541Z,24.65
2019-04-23T00:59:24.013Z,24.64
2019-04-23T01:02:08.861Z,24.63
2019-04-23T01:04:27.527Z,24.62
2019-04-23T01:06:58.323Z,24.62
2019-04-23T01:09:35.603Z,24.62
2019-04-23T01:12:07.439Z,24.59
2019-04-23T01:14:36.054Z,24.60
2019-04-23T01:17:08.586Z,24.60
2019-04-23T01:19:55.070Z,24.61
2019-04-23T01:21:55.815Z,24.60
2019-04-23T01:24:44.234Z,24.61
2019-04-23T01:27:47.429Z,24.61
2019-04-23T01:32:41.065Z,24.58
2019-04-23T01:35:17.737Z,24.58
2019-04-23T01:40:21.987Z,24.58
2019-04-23T01:55:42.175Z,24.53
2019-04-23T01:58:06.934Z,24.53
2019-04-23T02:00:30.357Z,24.52
2019-04-23T02:03:03.683Z,24.51
2019-04-23T02:08:05.170Z,24.49
2019-04-23T02:10:47.335Z,24.49
2019-04-23T02:13:11.340Z,24.50
2019-04-23T02:15:46.204Z,24.49
2019-04-23T02:18:17.947Z,24.50
2019-04-23T02:20:47.998Z,24.50
2019-04-23T02:28:46.306Z,24.50
2019-04-23T02:34:14.380Z,24.50
2019-04-23T02:36:36.225Z,24.50
2019-04-23T02:41:27.130Z,24.50
2019-04-23T02:44:06.982Z,24.50
2019-04-23T02:46:17.533Z,24.50
2019-04-23T02:54:29.130Z,24.51
2019-04-23T02:56:39.263Z,24.52
2019-04-23T02:59:16.410Z,24.54
2019-04-23T03:01:31.785Z,24.55
2019-04-23T17:04:03.598Z,26.18
2019-04-23T17:06:29.365Z,26.16
2019-04-23T17:09:01.755Z,26.15
2019-04-23T17:14:08.097Z,26.14
2019-04-23T17:19:22.431Z,26.13
2019-04-23T17:21:38.998Z,26.13
2019-04-23T17:24:21.169Z,26.14
2019-04-23T17:31:59.096Z,26.15
2019-04-23T17:34:32.199Z,26.16
2019-04-23T17:37:07.132Z,26.17
2019-04-23T17:39:43.528Z,26.18
2019-04-23T17:42:25.561Z,26.18
2019-04-23T17:45:06.067Z,26.19
2019-04-23T17:47:34.653Z,26.19
2019-04-23T17:50:13.666Z,26.21
2019-04-23T17:52:41.821Z,26.22
2019-04-23T17:55:10.891Z,26.21
2019-04-23T17:57:45.948Z,26.20
2019-04-23T18:02:55.449Z,26.18
2019-04-23T18:05:14.692Z,26.16
2019-04-23T18:07:50.483Z,26.14
2019-04-23T18:12:53.679Z,26.09
2019-04-23T18:15:15.595Z,26.06
2019-04-23T18:17:54.729Z,26.04
2019-04-23T18:20:39.812Z,26.02
2019-04-23T18:23:09.762Z,25.99
2019-04-23T18:28:16.926Z,25.92
2019-04-23T18:36:33.363Z,25.83
2019-04-23T18:39:06.738Z,25.80
2019-04-23T18:41:47.542Z,25.78
2019-04-23T18:44:13.282Z,25.76
2019-04-23T18:46:42.134Z,25.74
2019-04-23T18:49:13.587Z,25.71
2019-04-23T18:51:55.078Z,25.70
2019-04-23T18:54:15.277Z,25.66
2019-04-23T18:57:09.969Z,25.64
2019-04-23T19:02:07.998Z,25.60
2019-04-23T19:04:56.720Z,25.59
2019-04-23T19:07:38.497Z,25.56
2019-04-23T19:15:22.487Z,25.52
2019-04-23T19:25:23.919Z,25.48
2019-04-23T19:27:55.764Z,25.49
2019-04-23T19:30:43.016Z,25.47
2019-04-23T19:36:05.127Z,25.46
2019-04-23T19:38:17.266Z,25.45
2019-04-23T19:41:02.239Z,25.45
2019-04-23T19:43:25.174Z,25.44
2019-04-23T19:46:03.543Z,25.42
2019-04-23T19:53:42.941Z,25.38
2019-04-23T19:56:08.909Z,25.36
2019-04-23T19:58:39.524Z,25.35
2019-04-23T20:11:09.272Z,25.28
2019-04-23T20:18:52.488Z,25.24
2019-04-23T20:21:31.788Z,25.22
2019-04-23T20:24:04.842Z,25.23
2019-04-23T20:39:25.007Z,25.18
2019-04-23T20:52:10.415Z,25.15
2019-04-23T20:54:57.863Z,25.15
2019-04-23T21:00:24.253Z,25.14
2019-04-23T21:03:30.589Z,25.14
2019-04-23T21:05:40.848Z,25.11
2019-04-23T21:08:29.788Z,25.09
2019-04-23T21:11:03.081Z,25.06
2019-04-23T21:13:42.874Z,25.05
2019-04-23T21:15:52.524Z,25.04
2019-04-23T21:18:33.104Z,25.02
2019-04-23T21:25:52.667Z,25.01
2019-04-23T21:28:40.304Z,25.00
2019-04-23T21:33:59.613Z,24.99
2019-04-23T21:36:49.374Z,25.00
2019-04-23T21:40:04.749Z,25.00
2019-04-23T21:42:44.343Z,24.98
2019-04-23T21:45:02.215Z,24.96
2019-04-23T21:50:12.292Z,24.91
2019-04-23T21:52:41.607Z,24.88
2019-04-23T21:55:07.399Z,24.86
2019-04-23T21:57:52.924Z,24.84
2019-04-23T22:00:07.887Z,24.82
2019-04-23T22:02:51.993Z,24.80
2019-04-23T22:05:15.972Z,24.78
2019-04-23T22:07:51.900Z,24.76
2019-04-23T22:10:18.207Z,24.74
2019-04-23T22:13:02.211Z,24.38
2019-04-23T22:15:20.363Z,24.69
2019-04-23T22:17:50.135Z,24.68
2019-04-23T22:20:26.340Z,24.66
2019-04-23T22:23:03.840Z,24.62
2019-04-23T22:25:34.811Z,24.61
2019-04-23T22:27:58.254Z,24.58
2019-04-23T22:30:33.889Z,24.56
2019-04-23T22:33:02.650Z,24.54
2019-04-23T22:35:34.182Z,24.53
2019-04-23T22:38:20.704Z,24.51
2019-04-23T22:40:35.058Z,24.50
2019-04-23T22:45:43.190Z,24.47
2019-04-23T22:48:08.038Z,24.46
2019-04-23T22:50:48.512Z,24.46
2019-04-23T22:55:49.682Z,24.43
2019-04-23T22:58:16.193Z,24.42
2019-04-23T23:01:17.473Z,24.41
2019-04-23T23:03:47.531Z,24.41
2019-04-23T23:06:30.992Z,24.40
2019-04-23T23:08:55.436Z,24.38
2019-04-23T23:11:10.322Z,24.38
2019-04-23T23:14:09.593Z,24.38
2019-04-23T23:16:14.476Z,24.36
2019-04-23T23:18:52.435Z,24.35
2019-04-23T23:23:46.535Z,24.34
2019-04-23T23:26:24.243Z,24.33
2019-04-23T23:28:58.381Z,24.33
2019-04-23T23:33:59.321Z,24.31
2019-04-23T23:36:33.255Z,24.31
2019-04-23T23:44:26.273Z,24.31
2019-04-23T23:46:35.463Z,24.32
2019-04-23T23:49:03.205Z,24.31
2019-04-23T23:54:13.963Z,24.31
2019-04-23T23:59:13.089Z,24.32
